sensor_id;sensor_type;location;lat;lon;timestamp;pressure;altitude;pressure_sealevel;temperature;humidity
68075;BME280;54864;52.002;5.468;2023-06-10T00:00:55;101301.34;;;22.99;45.86
68075;BME280;54864;52.002;5.468;2023-06-10T00:01:57;101299.63;;;22.98;45.91
68075;BME280;54864;52.002;5.468;2023-06-10T00:03:00;101295.25;;;22.97;45.87
68075;BME280;54864;52.002;5.468;2023-06-10T00:04:02;101299.91;;;22.95;45.99
68075;BME280;54864;52.002;5.468;2023-06-10T00:05:03;101290.84;;;22.96;46.05
68075;BME280;54864;52.002;5.468;2023-06-10T00:06:05;101298.19;;;22.84;45.96
68075;BME280;54864;52.002;5.468;2023-06-10T00:07:06;101293.66;;;22.85;46.12
68075;BME280;54864;52.002;5.468;2023-06-10T00:08:10;101299.69;;;22.77;45.90
68075;BME280;54864;52.002;5.468;2023-06-10T00:09:11;101302.72;;;22.84;46.42
68075;BME280;54864;52.002;5.468;2023-06-10T00:10:14;101295.41;;;22.74;45.94
68075;BME280;54864;52.002;5.468;2023-06-10T00:11:16;101297.84;;;22.77;46.59
68075;BME280;54864;52.002;5.468;2023-06-10T00:12:18;101296.41;;;22.73;46.55
68075;BME280;54864;52.002;5.468;2023-06-10T00:13:20;101295.69;;;22.71;46.48
68075;BME280;54864;52.002;5.468;2023-06-10T00:14:22;101295.97;;;22.68;46.34
68075;BME280;54864;52.002;5.468;2023-06-10T00:15:22;101299.91;;;22.64;45.79
68075;BME280;54864;52.002;5.468;2023-06-10T00:16:24;101303.00;;;22.60;45.77
68075;BME280;54864;52.002;5.468;2023-06-10T00:17:25;101309.22;;;22.60;46.01
68075;BME280;54864;52.002;5.468;2023-06-10T00:18:29;101298.63;;;22.68;46.48
68075;BME280;54864;52.002;5.468;2023-06-10T00:19:31;101299.91;;;22.64;46.37
68075;BME280;54864;52.002;5.468;2023-06-10T00:20:32;101304.88;;;22.69;46.20
68075;BME280;54864;52.002;5.468;2023-06-10T00:21:39;101298.19;;;22.63;46.12
68075;BME280;54864;52.002;5.468;2023-06-10T00:22:40;101302.72;;;22.63;45.82
68075;BME280;54864;52.002;5.468;2023-06-10T00:23:47;101308.53;;;22.68;46.20
68075;BME280;54864;52.002;5.468;2023-06-10T00:24:47;101296.53;;;22.72;45.89
68075;BME280;54864;52.002;5.468;2023-06-10T00:25:49;101302.75;;;22.72;46.42
68075;BME280;54864;52.002;5.468;2023-06-10T00:26:50;101305.19;;;22.75;45.85
68075;BME280;54864;52.002;5.468;2023-06-10T00:27:52;101296.81;;;22.69;45.87
68075;BME280;54864;52.002;5.468;2023-06-10T00:28:52;101306.84;;;22.67;45.55
68075;BME280;54864;52.002;5.468;2023-06-10T00:29:54;101305.56;;;22.61;45.99
68075;BME280;54864;52.002;5.468;2023-06-10T00:30:55;101300.16;;;22.61;45.93
68075;BME280;54864;52.002;5.468;2023-06-10T00:31:57;101299.88;;;22.55;46.35
68075;BME280;54864;52.002;5.468;2023-06-10T00:32:58;101305.09;;;22.56;46.04
68075;BME280;54864;52.002;5.468;2023-06-10T00:34:00;101302.69;;;22.53;46.31
68075;BME280;54864;52.002;5.468;2023-06-10T00:35:01;101308.78;;;22.55;46.27
68075;BME280;54864;52.002;5.468;2023-06-10T00:36:03;101310.22;;;22.59;46.09
68075;BME280;54864;52.002;5.468;2023-06-10T00:37:04;101310.78;;;22.63;45.83
68075;BME280;54864;52.002;5.468;2023-06-10T00:38:06;101308.81;;;22.65;46.09
68075;BME280;54864;52.002;5.468;2023-06-10T00:39:08;101312.75;;;22.61;46.18
68075;BME280;54864;52.002;5.468;2023-06-10T00:40:10;101319.00;;;22.61;45.94
68075;BME280;54864;52.002;5.468;2023-06-10T00:41:11;101324.63;;;22.58;45.32
68075;BME280;54864;52.002;5.468;2023-06-10T00:42:13;101318.00;;;22.62;46.91
68075;BME280;54864;52.002;5.468;2023-06-10T00:43:14;101314.91;;;22.67;45.84
68075;BME280;54864;52.002;5.468;2023-06-10T00:44:15;101319.00;;;22.61;45.45
68075;BME280;54864;52.002;5.468;2023-06-10T00:45:16;101320.56;;;22.64;45.82
68075;BME280;54864;52.002;5.468;2023-06-10T00:46:18;101308.09;;;22.63;45.39
68075;BME280;54864;52.002;5.468;2023-06-10T00:47:19;101314.19;;;22.65;45.23
68075;BME280;54864;52.002;5.468;2023-06-10T00:48:20;101314.63;;;22.70;45.93
68075;BME280;54864;52.002;5.468;2023-06-10T00:49:21;101316.47;;;22.69;45.23
68075;BME280;54864;52.002;5.468;2023-06-10T00:50:23;101314.63;;;22.70;46.22
68075;BME280;54864;52.002;5.468;2023-06-10T00:51:24;101313.22;;;22.66;45.23
68075;BME280;54864;52.002;5.468;2023-06-10T00:52:28;101312.75;;;22.61;45.95
68075;BME280;54864;52.002;5.468;2023-06-10T00:53:29;101313.16;;;22.56;45.35
68075;BME280;54864;52.002;5.468;2023-06-10T00:54:32;101315.72;;;22.58;45.69
68075;BME280;54864;52.002;5.468;2023-06-10T00:55:33;101323.06;;;22.56;45.28
68075;BME280;54864;52.002;5.468;2023-06-10T00:56:36;101320.06;;;22.49;44.95
68075;BME280;54864;52.002;5.468;2023-06-10T00:57:37;101319.22;;;22.49;45.52
68075;BME280;54864;52.002;5.468;2023-06-10T00:58:39;101307.88;;;22.45;45.22
68075;BME280;54864;52.002;5.468;2023-06-10T00:59:40;101319.63;;;22.44;45.40
68075;BME280;54864;52.002;5.468;2023-06-10T01:00:42;101317.19;;;22.41;45.16
68075;BME280;54864;52.002;5.468;2023-06-10T01:01:45;101316.97;;;22.23;44.77
68075;BME280;54864;52.002;5.468;2023-06-10T01:02:48;101316.13;;;22.23;44.69
68075;BME280;54864;52.002;5.468;2023-06-10T01:03:49;101312.31;;;22.25;44.83
68075;BME280;54864;52.002;5.468;2023-06-10T01:04:51;101320.97;;;22.29;44.68
68075;BME280;54864;52.002;5.468;2023-06-10T01:05:58;101308.09;;;22.32;44.91
68075;BME280;54864;52.002;5.468;2023-06-10T01:07:11;101318.13;;;22.30;45.61
68075;BME280;54864;52.002;5.468;2023-06-10T01:08:22;101317.09;;;22.22;44.78
68075;BME280;54864;52.002;5.468;2023-06-10T01:09:35;101311.19;;;22.28;45.75
68075;BME280;54864;52.002;5.468;2023-06-10T01:10:43;101320.38;;;22.25;45.74
68075;BME280;54864;52.002;5.468;2023-06-10T01:11:48;101324.91;;;22.25;45.78
68075;BME280;54864;52.002;5.468;2023-06-10T01:12:55;101314.94;;;22.16;45.31
68075;BME280;54864;52.002;5.468;2023-06-10T01:14:03;101322.75;;;22.19;45.55
68075;BME280;54864;52.002;5.468;2023-06-10T01:15:06;101317.53;;;22.06;45.06
68075;BME280;54864;52.002;5.468;2023-06-10T01:16:09;101312.75;;;22.09;44.72
68075;BME280;54864;52.002;5.468;2023-06-10T01:17:11;101307.28;;;22.11;45.46
68075;BME280;54864;52.002;5.468;2023-06-10T01:18:12;101317.03;;;22.01;44.93
68075;BME280;54864;52.002;5.468;2023-06-10T01:19:15;101312.31;;;22.04;44.66
68075;BME280;54864;52.002;5.468;2023-06-10T01:20:18;101324.34;;;22.10;44.74
68075;BME280;54864;52.002;5.468;2023-06-10T01:21:21;101318.63;;;22.14;45.02
68075;BME280;54864;52.002;5.468;2023-06-10T01:22:25;101321.88;;;22.18;45.41
68075;BME280;54864;52.002;5.468;2023-06-10T01:23:28;101324.69;;;22.17;44.72
68075;BME280;54864;52.002;5.468;2023-06-10T01:24:30;101326.53;;;22.16;45.03
68075;BME280;54864;52.002;5.468;2023-06-10T01:25:38;101321.75;;;22.20;44.49
68075;BME280;54864;52.002;5.468;2023-06-10T01:26:41;101321.66;;;22.10;44.55
68075;BME280;54864;52.002;5.468;2023-06-10T01:27:46;101329.22;;;22.16;44.81
68075;BME280;54864;52.002;5.468;2023-06-10T01:28:52;101317.50;;;22.17;43.86
68075;BME280;54864;52.002;5.468;2023-06-10T01:29:59;101320.09;;;22.07;44.79
68075;BME280;54864;52.002;5.468;2023-06-10T01:31:09;101323.66;;;21.97;44.21
68075;BME280;54864;52.002;5.468;2023-06-10T01:32:17;101323.28;;;22.01;44.65
68075;BME280;54864;52.002;5.468;2023-06-10T01:33:25;101327.28;;;22.07;44.79
68075;BME280;54864;52.002;5.468;2023-06-10T01:34:27;101330.47;;;22.12;44.69
68075;BME280;54864;52.002;5.468;2023-06-10T01:35:30;101325.94;;;22.12;44.57
68075;BME280;54864;52.002;5.468;2023-06-10T01:36:33;101329.97;;;22.07;44.38
68075;BME280;54864;52.002;5.468;2023-06-10T01:37:38;101323.41;;;22.00;44.45
68075;BME280;54864;52.002;5.468;2023-06-10T01:38:42;101327.72;;;21.91;44.87
68075;BME280;54864;52.002;5.468;2023-06-10T01:39:45;101328.97;;;21.87;44.94
68075;BME280;54864;52.002;5.468;2023-06-10T01:40:48;101326.59;;;21.94;44.50
68075;BME280;54864;52.002;5.468;2023-06-10T01:41:52;101330.28;;;21.93;44.16
68075;BME280;54864;52.002;5.468;2023-06-10T01:42:52;101322.47;;;21.90;44.40
68075;BME280;54864;52.002;5.468;2023-06-10T01:43:55;101327.97;;;21.88;44.59
68075;BME280;54864;52.002;5.468;2023-06-10T01:44:55;101326.41;;;21.86;45.99
68075;BME280;54864;52.002;5.468;2023-06-10T01:45:57;101324.31;;;21.89;45.60
68075;BME280;54864;52.002;5.468;2023-06-10T01:46:58;101322.28;;;21.81;45.11
68075;BME280;54864;52.002;5.468;2023-06-10T01:48:00;101318.81;;;21.91;45.20
68075;BME280;54864;52.002;5.468;2023-06-10T01:49:00;101329.69;;;21.89;44.50
68075;BME280;54864;52.002;5.468;2023-06-10T01:50:02;101323.94;;;21.94;44.57
68075;BME280;54864;52.002;5.468;2023-06-10T01:51:03;101320.66;;;21.90;44.64
68075;BME280;54864;52.002;5.468;2023-06-10T01:52:07;101321.16;;;21.84;44.56
68075;BME280;54864;52.002;5.468;2023-06-10T01:53:07;101323.25;;;21.80;44.54
68075;BME280;54864;52.002;5.468;2023-06-10T01:54:09;101323.13;;;21.82;44.31
68075;BME280;54864;52.002;5.468;2023-06-10T01:55:10;101324.13;;;21.81;44.92
68075;BME280;54864;52.002;5.468;2023-06-10T01:56:11;101324.97;;;21.81;44.62
68075;BME280;54864;52.002;5.468;2023-06-10T01:57:17;101322.88;;;21.85;45.08
68075;BME280;54864;52.002;5.468;2023-06-10T01:58:19;101318.09;;;21.68;44.14
68075;BME280;54864;52.002;5.468;2023-06-10T01:59:20;101316.97;;;21.70;44.56
68075;BME280;54864;52.002;5.468;2023-06-10T02:00:22;101319.56;;;21.61;44.28
68075;BME280;54864;52.002;5.468;2023-06-10T02:01:23;101317.22;;;21.67;44.89
68075;BME280;54864;52.002;5.468;2023-06-10T02:02:24;101317.09;;;21.69;45.44
68075;BME280;54864;52.002;5.468;2023-06-10T02:03:25;101323.44;;;21.68;45.08
68075;BME280;54864;52.002;5.468;2023-06-10T02:04:27;101320.16;;;21.64;45.12
68075;BME280;54864;52.002;5.468;2023-06-10T02:05:27;101319.44;;;21.62;44.97
68075;BME280;54864;52.002;5.468;2023-06-10T02:06:29;101322.97;;;21.63;44.55
68075;BME280;54864;52.002;5.468;2023-06-10T02:07:31;101318.72;;;21.60;45.17
68075;BME280;54864;52.002;5.468;2023-06-10T02:08:33;101313.75;;;21.56;44.48
68075;BME280;54864;52.002;5.468;2023-06-10T02:09:34;101321.41;;;21.60;44.49
68075;BME280;54864;52.002;5.468;2023-06-10T02:10:36;101312.03;;;21.55;44.55
68075;BME280;54864;52.002;5.468;2023-06-10T02:11:37;101315.69;;;21.54;44.53
68075;BME280;54864;52.002;5.468;2023-06-10T02:12:39;101321.31;;;21.50;44.41
68075;BME280;54864;52.002;5.468;2023-06-10T02:13:39;101317.91;;;21.48;44.61
68075;BME280;54864;52.002;5.468;2023-06-10T02:14:41;101322.91;;;21.42;44.80
68075;BME280;54864;52.002;5.468;2023-06-10T02:15:42;101312.91;;;21.44;44.86
68075;BME280;54864;52.002;5.468;2023-06-10T02:16:43;101324.25;;;21.47;44.73
68075;BME280;54864;52.002;5.468;2023-06-10T02:17:47;101321.31;;;21.50;44.54
68075;BME280;54864;52.002;5.468;2023-06-10T02:18:49;101315.72;;;21.42;44.58
68075;BME280;54864;52.002;5.468;2023-06-10T02:19:50;101318.44;;;21.31;45.00
68075;BME280;54864;52.002;5.468;2023-06-10T02:20:53;101324.66;;;21.32;44.95
68075;BME280;54864;52.002;5.468;2023-06-10T02:21:54;101319.53;;;21.29;45.21
68075;BME280;54864;52.002;5.468;2023-06-10T02:22:58;101323.06;;;21.29;45.27
68075;BME280;54864;52.002;5.468;2023-06-10T02:23:59;101319.16;;;21.33;45.24
68075;BME280;54864;52.002;5.468;2023-06-10T02:25:01;101327.59;;;21.29;44.77
68075;BME280;54864;52.002;5.468;2023-06-10T02:26:01;101324.31;;;21.25;45.16
68075;BME280;54864;52.002;5.468;2023-06-10T02:27:04;101326.59;;;21.30;44.95
68075;BME280;54864;52.002;5.468;2023-06-10T02:28:06;101329.16;;;21.31;44.98
68075;BME280;54864;52.002;5.468;2023-06-10T02:29:08;101325.75;;;21.29;45.08
68075;BME280;54864;52.002;5.468;2023-06-10T02:30:10;101330.38;;;21.38;45.03
68075;BME280;54864;52.002;5.468;2023-06-10T02:31:11;101328.06;;;21.34;44.74
68075;BME280;54864;52.002;5.468;2023-06-10T02:32:13;101339.63;;;21.34;45.26
68075;BME280;54864;52.002;5.468;2023-06-10T02:33:15;101327.13;;;21.24;45.16
68075;BME280;54864;52.002;5.468;2023-06-10T02:34:15;101331.63;;;21.23;44.93
68075;BME280;54864;52.002;5.468;2023-06-10T02:35:17;101327.72;;;21.16;45.18
68075;BME280;54864;52.002;5.468;2023-06-10T02:36:17;101329.19;;;21.09;45.57
68075;BME280;54864;52.002;5.468;2023-06-10T02:37:21;101333.56;;;21.10;45.13
68075;BME280;54864;52.002;5.468;2023-06-10T02:38:23;101336.84;;;21.13;45.50
68075;BME280;54864;52.002;5.468;2023-06-10T02:39:25;101335.88;;;21.14;45.33
68075;BME280;54864;52.002;5.468;2023-06-10T02:40:26;101324.31;;;21.14;45.37
68075;BME280;54864;52.002;5.468;2023-06-10T02:41:27;101338.34;;;21.06;45.43
68075;BME280;54864;52.002;5.468;2023-06-10T02:42:29;101343.31;;;21.11;45.79
68075;BME280;54864;52.002;5.468;2023-06-10T02:43:30;101330.28;;;21.17;45.78
68075;BME280;54864;52.002;5.468;2023-06-10T02:44:31;101334.19;;;21.25;45.50
68075;BME280;54864;52.002;5.468;2023-06-10T02:45:33;101332.81;;;21.19;45.69
68075;BME280;54864;52.002;5.468;2023-06-10T02:46:33;101333.06;;;21.16;45.74
68075;BME280;54864;52.002;5.468;2023-06-10T02:47:37;101335.16;;;21.12;45.62
68075;BME280;54864;52.002;5.468;2023-06-10T02:48:42;101329.28;;;21.18;45.58
68075;BME280;54864;52.002;5.468;2023-06-10T02:49:44;101328.81;;;21.13;46.07
68075;BME280;54864;52.002;5.468;2023-06-10T02:50:44;101332.22;;;21.15;45.72
68075;BME280;54864;52.002;5.468;2023-06-10T02:51:46;101325.41;;;21.11;45.89
68075;BME280;54864;52.002;5.468;2023-06-10T02:52:48;101330.78;;;21.00;45.76
68075;BME280;54864;52.002;5.468;2023-06-10T02:53:51;101330.91;;;20.99;46.11
68075;BME280;54864;52.002;5.468;2023-06-10T02:54:52;101344.81;;;20.93;46.46
68075;BME280;54864;52.002;5.468;2023-06-10T02:55:53;101335.78;;;20.94;46.56
68075;BME280;54864;52.002;5.468;2023-06-10T02:56:54;101333.72;;;20.97;46.25
68075;BME280;54864;52.002;5.468;2023-06-10T02:57:56;101341.03;;;20.84;46.58
68075;BME280;54864;52.002;5.468;2023-06-10T02:58:56;101334.47;;;20.88;46.94
68075;BME280;54864;52.002;5.468;2023-06-10T02:59:58;101326.78;;;20.95;47.10
68075;BME280;54864;52.002;5.468;2023-06-10T03:01:00;101324.84;;;20.85;46.95
68075;BME280;54864;52.002;5.468;2023-06-10T03:02:01;101330.44;;;20.94;46.90
68075;BME280;54864;52.002;5.468;2023-06-10T03:03:02;101330.19;;;20.97;46.91
68075;BME280;54864;52.002;5.468;2023-06-10T03:04:05;101337.00;;;21.01;46.39
68075;BME280;54864;52.002;5.468;2023-06-10T03:05:07;101331.41;;;21.04;46.94
68075;BME280;54864;52.002;5.468;2023-06-10T03:06:10;101329.22;;;20.86;46.84
68075;BME280;54864;52.002;5.468;2023-06-10T03:07:11;101336.78;;;20.93;47.46
68075;BME280;54864;52.002;5.468;2023-06-10T03:08:12;101337.63;;;20.93;47.24
68075;BME280;54864;52.002;5.468;2023-06-10T03:09:14;101334.69;;;20.96;47.43
68075;BME280;54864;52.002;5.468;2023-06-10T03:10:16;101333.72;;;20.97;47.02
68075;BME280;54864;52.002;5.468;2023-06-10T03:11:17;101333.59;;;20.99;46.51
68075;BME280;54864;52.002;5.468;2023-06-10T03:12:19;101334.69;;;20.96;46.66
68075;BME280;54864;52.002;5.468;2023-06-10T03:13:20;101329.47;;;20.95;47.00
68075;BME280;54864;52.002;5.468;2023-06-10T03:14:22;101334.81;;;20.95;46.78
68075;BME280;54864;52.002;5.468;2023-06-10T03:15:22;101330.94;;;20.87;47.00
68075;BME280;54864;52.002;5.468;2023-06-10T03:16:24;101330.06;;;20.87;47.84
68075;BME280;54864;52.002;5.468;2023-06-10T03:17:25;101330.31;;;20.84;47.09
68075;BME280;54864;52.002;5.468;2023-06-10T03:18:27;101336.78;;;20.81;47.21
68075;BME280;54864;52.002;5.468;2023-06-10T03:19:28;101331.44;;;20.81;47.82
68075;BME280;54864;52.002;5.468;2023-06-10T03:20:31;101330.31;;;20.84;47.46
68075;BME280;54864;52.002;5.468;2023-06-10T03:21:31;101334.19;;;20.80;47.79
68075;BME280;54864;52.002;5.468;2023-06-10T03:22:33;101336.53;;;20.84;47.88
68075;BME280;54864;52.002;5.468;2023-06-10T03:23:33;101337.38;;;20.85;47.84
68075;BME280;54864;52.002;5.468;2023-06-10T03:24:36;101338.00;;;20.88;48.09
68075;BME280;54864;52.002;5.468;2023-06-10T03:25:40;101339.09;;;20.86;47.85
68075;BME280;54864;52.002;5.468;2023-06-10T03:26:41;101342.47;;;20.66;48.57
68075;BME280;54864;52.002;5.468;2023-06-10T03:27:42;101337.72;;;20.69;48.00
68075;BME280;54864;52.002;5.468;2023-06-10T03:28:44;101340.03;;;20.74;48.11
68075;BME280;54864;52.002;5.468;2023-06-10T03:29:45;101346.25;;;20.74;48.19
68075;BME280;54864;52.002;5.468;2023-06-10T03:30:46;101344.06;;;20.79;49.13
68075;BME280;54864;52.002;5.468;2023-06-10T03:31:47;101347.09;;;20.75;47.92
68075;BME280;54864;52.002;5.468;2023-06-10T03:32:49;101340.91;;;20.74;48.26
68075;BME280;54864;52.002;5.468;2023-06-10T03:33:50;101339.56;;;20.69;48.16
68075;BME280;54864;52.002;5.468;2023-06-10T03:34:51;101342.97;;;20.71;48.38
68075;BME280;54864;52.002;5.468;2023-06-10T03:35:58;101340.03;;;20.74;48.71
68075;BME280;54864;52.002;5.468;2023-06-10T03:36:59;101345.41;;;20.74;49.21
68075;BME280;54864;52.002;5.468;2023-06-10T03:38:01;101350.03;;;20.72;48.88
68075;BME280;54864;52.002;5.468;2023-06-10T03:39:02;101353.69;;;20.71;48.34
68075;BME280;54864;52.002;5.468;2023-06-10T03:40:06;101344.44;;;20.75;48.89
68075;BME280;54864;52.002;5.468;2023-06-10T03:41:08;101355.03;;;20.76;48.73
68075;BME280;54864;52.002;5.468;2023-06-10T03:42:10;101348.81;;;20.65;48.76
68075;BME280;54864;52.002;5.468;2023-06-10T03:43:11;101343.34;;;20.55;48.98
68075;BME280;54864;52.002;5.468;2023-06-10T03:44:13;101347.84;;;20.66;49.17
68075;BME280;54864;52.002;5.468;2023-06-10T03:45:14;101347.59;;;20.69;48.63
68075;BME280;54864;52.002;5.468;2023-06-10T03:46:15;101347.97;;;20.64;49.13
68075;BME280;54864;52.002;5.468;2023-06-10T03:47:18;101354.06;;;20.55;49.46
68075;BME280;54864;52.002;5.468;2023-06-10T03:48:19;101354.91;;;20.67;49.52
68075;BME280;54864;52.002;5.468;2023-06-10T03:49:20;101355.38;;;20.72;49.36
68075;BME280;54864;52.002;5.468;2023-06-10T03:50:26;101350.53;;;20.66;48.98
68075;BME280;54864;52.002;5.468;2023-06-10T03:51:26;101354.06;;;20.66;49.06
68075;BME280;54864;52.002;5.468;2023-06-10T03:52:28;101358.81;;;20.63;49.16
68075;BME280;54864;52.002;5.468;2023-06-10T03:53:29;101352.59;;;20.51;48.96
68075;BME280;54864;52.002;5.468;2023-06-10T03:54:30;101356.59;;;20.45;49.43
68075;BME280;54864;52.002;5.468;2023-06-10T03:55:33;101352.59;;;20.51;49.54
68075;BME280;54864;52.002;5.468;2023-06-10T03:56:35;101362.19;;;20.42;49.56
68075;BME280;54864;52.002;5.468;2023-06-10T03:57:35;101355.25;;;20.40;49.65
68075;BME280;54864;52.002;5.468;2023-06-10T03:58:37;101353.69;;;20.48;49.71
68075;BME280;54864;52.002;5.468;2023-06-10T03:59:38;101350.28;;;20.46;49.81
68075;BME280;54864;52.002;5.468;2023-06-10T04:00:39;101353.69;;;20.48;49.86
68075;BME280;54864;52.002;5.468;2023-06-10T04:01:41;101353.31;;;20.53;49.53
68075;BME280;54864;52.002;5.468;2023-06-10T04:02:44;101351.13;;;20.47;49.70
68075;BME280;54864;52.002;5.468;2023-06-10T04:03:46;101357.22;;;20.49;49.50
68075;BME280;54864;52.002;5.468;2023-06-10T04:04:49;101356.84;;;20.53;49.74
68075;BME280;54864;52.002;5.468;2023-06-10T04:05:51;101355.50;;;20.48;49.81
68075;BME280;54864;52.002;5.468;2023-06-10T04:06:52;101355.75;;;20.45;49.63
68075;BME280;54864;52.002;5.468;2023-06-10T04:07:53;101351.59;;;20.41;49.90
68075;BME280;54864;52.002;5.468;2023-06-10T04:08:55;101351.59;;;20.41;50.40
68075;BME280;54864;52.002;5.468;2023-06-10T04:09:57;101358.25;;;20.35;50.23
68075;BME280;54864;52.002;5.468;2023-06-10T04:11:00;101354.41;;;20.39;50.04
68075;BME280;54864;52.002;5.468;2023-06-10T04:12:00;101358.88;;;20.39;50.58
68075;BME280;54864;52.002;5.468;2023-06-10T04:13:02;101351.25;;;20.45;50.24
68075;BME280;54864;52.002;5.468;2023-06-10T04:14:03;101354.78;;;20.46;50.09
68075;BME280;54864;52.002;5.468;2023-06-10T04:15:06;101364.03;;;20.53;50.36
68075;BME280;54864;52.002;5.468;2023-06-10T04:16:07;101364.88;;;20.53;49.91
68075;BME280;54864;52.002;5.468;2023-06-10T04:17:09;101355.34;;;20.38;50.13
68075;BME280;54864;52.002;5.468;2023-06-10T04:18:09;101366.34;;;20.46;49.95
68075;BME280;54864;52.002;5.468;2023-06-10T04:19:11;101352.09;;;20.46;50.19
68075;BME280;54864;52.002;5.468;2023-06-10T04:20:12;101360.13;;;20.57;50.08
68075;BME280;54864;52.002;5.468;2023-06-10T04:21:13;101367.69;;;20.63;50.78
68075;BME280;54864;52.002;5.468;2023-06-10T04:22:15;101367.81;;;20.62;50.64
68075;BME280;54864;52.002;5.468;2023-06-10T04:23:15;101366.84;;;20.63;50.25
68075;BME280;54864;52.002;5.468;2023-06-10T04:24:17;101369.66;;;20.61;50.11
68075;BME280;54864;52.002;5.468;2023-06-10T04:25:18;101366.72;;;20.53;49.83
68075;BME280;54864;52.002;5.468;2023-06-10T04:26:21;101362.81;;;20.68;50.27
68075;BME280;54864;52.002;5.468;2023-06-10T04:27:22;101366.97;;;20.72;50.51
68075;BME280;54864;52.002;5.468;2023-06-10T04:28:24;101370.50;;;20.73;50.36
68075;BME280;54864;52.002;5.468;2023-06-10T04:29:25;101372.81;;;20.66;50.02
68075;BME280;54864;52.002;5.468;2023-06-10T04:30:26;101374.88;;;20.63;50.37
68075;BME280;54864;52.002;5.468;2023-06-10T04:31:27;101380.25;;;20.63;50.80
68075;BME280;54864;52.002;5.468;2023-06-10T04:32:29;101374.38;;;20.46;50.53
68075;BME280;54864;52.002;5.468;2023-06-10T04:33:30;101367.94;;;20.49;50.46
68075;BME280;54864;52.002;5.468;2023-06-10T04:34:32;101374.63;;;20.54;50.71
68075;BME280;54864;52.002;5.468;2023-06-10T04:35:33;101376.47;;;20.54;50.29
68075;BME280;54864;52.002;5.468;2023-06-10T04:36:34;101379.00;;;20.55;50.88
68075;BME280;54864;52.002;5.468;2023-06-10T04:37:36;101375.84;;;20.50;50.17
68075;BME280;54864;52.002;5.468;2023-06-10T04:38:36;101374.63;;;20.54;50.59
68075;BME280;54864;52.002;5.468;2023-06-10T04:39:38;101377.06;;;20.57;50.38
68075;BME280;54864;52.002;5.468;2023-06-10T04:40:39;101376.22;;;20.57;51.05
68075;BME280;54864;52.002;5.468;2023-06-10T04:41:42;101378.41;;;20.63;50.41
68075;BME280;54864;52.002;5.468;2023-06-10T04:42:42;101382.19;;;20.61;50.65
68075;BME280;54864;52.002;5.468;2023-06-10T04:43:44;101376.94;;;20.59;50.84
68075;BME280;54864;52.002;5.468;2023-06-10T04:44:45;101387.28;;;20.52;51.00
68075;BME280;54864;52.002;5.468;2023-06-10T04:45:46;101380.81;;;20.44;51.05
68075;BME280;54864;52.002;5.468;2023-06-10T04:46:47;101377.91;;;20.47;51.02
68075;BME280;54864;52.002;5.468;2023-06-10T04:47:49;101384.63;;;20.52;50.91
68075;BME280;54864;52.002;5.468;2023-06-10T04:48:49;101381.22;;;20.62;51.34
68075;BME280;54864;52.002;5.468;2023-06-10T04:49:51;101393.41;;;20.66;50.81
68075;BME280;54864;52.002;5.468;2023-06-10T04:50:52;101383.28;;;20.69;51.01
68075;BME280;54864;52.002;5.468;2023-06-10T04:51:54;101388.78;;;20.68;50.88
68075;BME280;54864;52.002;5.468;2023-06-10T04:52:56;101385.84;;;20.71;50.90
68075;BME280;54864;52.002;5.468;2023-06-10T04:53:58;101400.09;;;20.71;51.42
68075;BME280;54864;52.002;5.468;2023-06-10T04:55:03;101382.81;;;20.75;50.98
68075;BME280;54864;52.002;5.468;2023-06-10T04:56:05;101388.78;;;20.79;51.47
68075;BME280;54864;52.002;5.468;2023-06-10T04:57:07;101383.28;;;20.69;50.83
68075;BME280;54864;52.002;5.468;2023-06-10T04:58:09;101393.53;;;20.75;50.53
68075;BME280;54864;52.002;5.468;2023-06-10T04:59:09;101392.53;;;20.76;51.13
68075;BME280;54864;52.002;5.468;2023-06-10T05:00:12;101402.28;;;20.77;51.28
68075;BME280;54864;52.002;5.468;2023-06-10T05:01:12;101397.56;;;20.81;51.16
68075;BME280;54864;52.002;5.468;2023-06-10T05:02:14;101390.38;;;20.81;51.17
68075;BME280;54864;52.002;5.468;2023-06-10T05:03:15;101403.19;;;20.89;51.02
68075;BME280;54864;52.002;5.468;2023-06-10T05:04:16;101398.06;;;20.86;51.21
68075;BME280;54864;52.002;5.468;2023-06-10T05:05:17;101395.97;;;20.78;50.98
68075;BME280;54864;52.002;5.468;2023-06-10T05:06:19;101396.47;;;20.83;50.58
68075;BME280;54864;52.002;5.468;2023-06-10T05:07:19;101394.66;;;20.84;51.11
68075;BME280;54864;52.002;5.468;2023-06-10T05:08:21;101394.97;;;20.79;51.08
68075;BME280;54864;52.002;5.468;2023-06-10T05:09:22;101396.81;;;20.79;52.05
68075;BME280;54864;52.002;5.468;2023-06-10T05:10:23;101388.44;;;20.83;51.49
68075;BME280;54864;52.002;5.468;2023-06-10T05:11:25;101395.03;;;20.91;51.63
68075;BME280;54864;52.002;5.468;2023-06-10T05:12:27;101401.00;;;20.94;51.80
68075;BME280;54864;52.002;5.468;2023-06-10T05:13:29;101386.47;;;20.97;50.86
68075;BME280;54864;52.002;5.468;2023-06-10T05:14:30;101393.19;;;20.91;51.46
68075;BME280;54864;52.002;5.468;2023-06-10T05:15:31;101388.56;;;20.93;50.58
68075;BME280;54864;52.002;5.468;2023-06-10T05:16:33;101402.19;;;21.01;50.77
68075;BME280;54864;52.002;5.468;2023-06-10T05:17:34;101391.59;;;21.11;51.10
68075;BME280;54864;52.002;5.468;2023-06-10T05:18:36;101395.47;;;21.18;51.15
68075;BME280;54864;52.002;5.468;2023-06-10T05:19:37;101394.16;;;21.24;51.08
68075;BME280;54864;52.002;5.468;2023-06-10T05:20:38;101394.66;;;21.29;50.73
68075;BME280;54864;52.002;5.468;2023-06-10T05:21:39;101395.75;;;21.26;50.53
68075;BME280;54864;52.002;5.468;2023-06-10T05:22:41;101390.72;;;21.21;50.34
68075;BME280;54864;52.002;5.468;2023-06-10T05:23:42;101392.06;;;21.16;50.36
68075;BME280;54864;52.002;5.468;2023-06-10T05:24:43;101400.13;;;21.27;50.66